sensor_id;sensor_type;location;lat;lon;timestamp;P1;durP1;ratioP1;P2;durP2;ratioP2
74344;SDS011;62776;50.518;6.732;2023-02-11T00:01:57;12.05;;;10.68;;
74344;SDS011;62776;50.518;6.732;2023-02-11T00:04:46;12.50;;;11.20;;
74344;SDS011;62776;50.518;6.732;2023-02-11T00:07:33;12.82;;;11.60;;
74344;SDS011;62776;50.518;6.732;2023-02-11T00:10:20;11.85;;;10.75;;
74344;SDS011;62776;50.518;6.732;2023-02-11T00:13:07;12.00;;;10.77;;
74344;SDS011;62776;50.518;6.732;2023-02-11T00:15:53;12.18;;;11.00;;
74344;SDS011;62776;50.518;6.732;2023-02-11T00:18:40;12.02;;;10.93;;
74344;SDS011;62776;50.518;6.732;2023-02-11T00:21:29;11.20;;;10.07;;
74344;SDS011;62776;50.518;6.732;2023-02-11T00:24:21;12.80;;;11.15;;
74344;SDS011;62776;50.518;6.732;2023-02-11T00:27:07;12.13;;;10.93;;
74344;SDS011;62776;50.518;6.732;2023-02-11T00:29:54;12.48;;;11.10;;
74344;SDS011;62776;50.518;6.732;2023-02-11T00:32:41;12.93;;;11.73;;
74344;SDS011;62776;50.518;6.732;2023-02-11T00:35:28;15.07;;;11.60;;
74344;SDS011;62776;50.518;6.732;2023-02-11T00:38:17;12.02;;;10.82;;
74344;SDS011;62776;50.518;6.732;2023-02-11T00:41:09;12.32;;;11.15;;
74344;SDS011;62776;50.518;6.732;2023-02-11T00:43:57;12.68;;;11.50;;
74344;SDS011;62776;50.518;6.732;2023-02-11T00:46:43;11.48;;;10.48;;
74344;SDS011;62776;50.518;6.732;2023-02-11T00:49:33;12.30;;;11.10;;
74344;SDS011;62776;50.518;6.732;2023-02-11T00:52:23;12.98;;;11.27;;
74344;SDS011;62776;50.518;6.732;2023-02-11T00:55:11;13.50;;;12.13;;
74344;SDS011;62776;50.518;6.732;2023-02-11T00:58:05;12.10;;;11.00;;
74344;SDS011;62776;50.518;6.732;2023-02-11T01:00:51;13.80;;;12.48;;
74344;SDS011;62776;50.518;6.732;2023-02-11T01:03:45;12.30;;;11.13;;
74344;SDS011;62776;50.518;6.732;2023-02-11T01:06:32;11.63;;;10.57;;
74344;SDS011;62776;50.518;6.732;2023-02-11T01:09:32;14.75;;;13.35;;
74344;SDS011;62776;50.518;6.732;2023-02-11T01:12:18;14.35;;;12.85;;
74344;SDS011;62776;50.518;6.732;2023-02-11T01:15:08;13.85;;;12.55;;
74344;SDS011;62776;50.518;6.732;2023-02-11T01:17:59;13.50;;;12.30;;
74344;SDS011;62776;50.518;6.732;2023-02-11T01:20:46;13.80;;;12.43;;
74344;SDS011;62776;50.518;6.732;2023-02-11T01:23:33;16.02;;;14.45;;
74344;SDS011;62776;50.518;6.732;2023-02-11T01:26:19;15.32;;;13.52;;
74344;SDS011;62776;50.518;6.732;2023-02-11T01:29:17;14.88;;;13.38;;
74344;SDS011;62776;50.518;6.732;2023-02-11T01:32:05;15.73;;;14.10;;
74344;SDS011;62776;50.518;6.732;2023-02-11T01:34:51;16.17;;;14.50;;
74344;SDS011;62776;50.518;6.732;2023-02-11T01:37:43;16.98;;;15.35;;
74344;SDS011;62776;50.518;6.732;2023-02-11T01:40:32;15.93;;;14.52;;
74344;SDS011;62776;50.518;6.732;2023-02-11T01:43:25;16.13;;;14.52;;
74344;SDS011;62776;50.518;6.732;2023-02-11T01:49:26;16.40;;;14.80;;
74344;SDS011;62776;50.518;6.732;2023-02-11T01:52:22;16.80;;;15.18;;
74344;SDS011;62776;50.518;6.732;2023-02-11T01:55:16;16.38;;;14.88;;
74344;SDS011;62776;50.518;6.732;2023-02-11T01:58:22;16.13;;;14.63;;
74344;SDS011;62776;50.518;6.732;2023-02-11T02:01:10;17.20;;;15.55;;
74344;SDS011;62776;50.518;6.732;2023-02-11T02:04:00;18.27;;;16.58;;
74344;SDS011;62776;50.518;6.732;2023-02-11T02:06:50;17.25;;;15.60;;
74344;SDS011;62776;50.518;6.732;2023-02-11T02:09:47;17.50;;;15.68;;
74344;SDS011;62776;50.518;6.732;2023-02-11T02:12:41;18.63;;;16.92;;
74344;SDS011;62776;50.518;6.732;2023-02-11T02:15:33;17.80;;;15.98;;
74344;SDS011;62776;50.518;6.732;2023-02-11T02:21:38;18.35;;;16.08;;
74344;SDS011;62776;50.518;6.732;2023-02-11T02:27:49;21.00;;;18.90;;
74344;SDS011;62776;50.518;6.732;2023-02-11T02:40:49;18.85;;;16.95;;
74344;SDS011;62776;50.518;6.732;2023-02-11T02:43:41;20.98;;;18.67;;
74344;SDS011;62776;50.518;6.732;2023-02-11T02:46:31;21.63;;;19.42;;
74344;SDS011;62776;50.518;6.732;2023-02-11T02:49:18;21.33;;;19.00;;
74344;SDS011;62776;50.518;6.732;2023-02-11T02:55:11;21.95;;;19.65;;
74344;SDS011;62776;50.518;6.732;2023-02-11T03:01:18;19.42;;;17.55;;
74344;SDS011;62776;50.518;6.732;2023-02-11T03:04:21;19.38;;;17.40;;
74344;SDS011;62776;50.518;6.732;2023-02-11T03:10:12;20.02;;;18.13;;
74344;SDS011;62776;50.518;6.732;2023-02-11T03:13:19;21.55;;;19.60;;
74344;SDS011;62776;50.518;6.732;2023-02-11T03:16:11;20.40;;;18.38;;
74344;SDS011;62776;50.518;6.732;2023-02-11T03:19:12;21.65;;;19.55;;
74344;SDS011;62776;50.518;6.732;2023-02-11T03:22:07;22.30;;;20.13;;
74344;SDS011;62776;50.518;6.732;2023-02-11T03:25:02;20.27;;;18.25;;
74344;SDS011;62776;50.518;6.732;2023-02-11T03:27:51;21.23;;;19.23;;
74344;SDS011;62776;50.518;6.732;2023-02-11T03:34:05;21.13;;;19.10;;
74344;SDS011;62776;50.518;6.732;2023-02-11T03:37:19;21.40;;;19.33;;
74344;SDS011;62776;50.518;6.732;2023-02-11T03:40:19;21.48;;;19.30;;
74344;SDS011;62776;50.518;6.732;2023-02-11T03:43:17;20.65;;;18.65;;
74344;SDS011;62776;50.518;6.732;2023-02-11T03:46:17;21.85;;;19.73;;
74344;SDS011;62776;50.518;6.732;2023-02-11T03:49:16;23.30;;;21.10;;
74344;SDS011;62776;50.518;6.732;2023-02-11T03:52:06;21.95;;;19.63;;
74344;SDS011;62776;50.518;6.732;2023-02-11T03:54:56;23.27;;;20.80;;
74344;SDS011;62776;50.518;6.732;2023-02-11T03:57:47;25.40;;;21.30;;
74344;SDS011;62776;50.518;6.732;2023-02-11T04:00:36;21.88;;;19.63;;
74344;SDS011;62776;50.518;6.732;2023-02-11T04:06:13;22.58;;;20.25;;
74344;SDS011;62776;50.518;6.732;2023-02-11T04:08:59;22.90;;;20.55;;
74344;SDS011;62776;50.518;6.732;2023-02-11T04:11:46;20.73;;;18.60;;
74344;SDS011;62776;50.518;6.732;2023-02-11T04:14:33;22.23;;;19.92;;
74344;SDS011;62776;50.518;6.732;2023-02-11T04:17:21;21.20;;;19.10;;
74344;SDS011;62776;50.518;6.732;2023-02-11T04:20:08;21.17;;;19.05;;
74344;SDS011;62776;50.518;6.732;2023-02-11T04:22:55;23.45;;;21.05;;
74344;SDS011;62776;50.518;6.732;2023-02-11T04:25:43;20.77;;;18.70;;
74344;SDS011;62776;50.518;6.732;2023-02-11T04:28:29;23.55;;;20.90;;
74344;SDS011;62776;50.518;6.732;2023-02-11T04:31:15;24.17;;;20.75;;
74344;SDS011;62776;50.518;6.732;2023-02-11T04:34:02;20.60;;;18.50;;
74344;SDS011;62776;50.518;6.732;2023-02-11T04:36:48;24.15;;;21.13;;
74344;SDS011;62776;50.518;6.732;2023-02-11T04:39:35;24.67;;;21.95;;
74344;SDS011;62776;50.518;6.732;2023-02-11T04:42:21;22.45;;;20.10;;
74344;SDS011;62776;50.518;6.732;2023-02-11T04:45:11;22.20;;;19.92;;
74344;SDS011;62776;50.518;6.732;2023-02-11T04:47:57;21.60;;;19.45;;
74344;SDS011;62776;50.518;6.732;2023-02-11T04:50:47;21.63;;;19.42;;
74344;SDS011;62776;50.518;6.732;2023-02-11T04:53:33;22.08;;;19.90;;
74344;SDS011;62776;50.518;6.732;2023-02-11T04:56:19;22.10;;;19.25;;
74344;SDS011;62776;50.518;6.732;2023-02-11T04:59:06;22.13;;;19.27;;
74344;SDS011;62776;50.518;6.732;2023-02-11T05:01:52;23.30;;;20.83;;
74344;SDS011;62776;50.518;6.732;2023-02-11T05:04:47;21.30;;;19.08;;
74344;SDS011;62776;50.518;6.732;2023-02-11T05:07:35;21.67;;;19.35;;
74344;SDS011;62776;50.518;6.732;2023-02-11T05:10:24;23.17;;;20.00;;
74344;SDS011;62776;50.518;6.732;2023-02-11T05:13:11;19.40;;;17.58;;
74344;SDS011;62776;50.518;6.732;2023-02-11T05:15:57;23.15;;;20.33;;
74344;SDS011;62776;50.518;6.732;2023-02-11T05:18:45;22.05;;;18.63;;
74344;SDS011;62776;50.518;6.732;2023-02-11T05:21:38;19.38;;;17.30;;
74344;SDS011;62776;50.518;6.732;2023-02-11T05:24:25;21.77;;;17.92;;
74344;SDS011;62776;50.518;6.732;2023-02-11T05:27:12;19.48;;;17.23;;
74344;SDS011;62776;50.518;6.732;2023-02-11T05:29:59;21.33;;;18.17;;
74344;SDS011;62776;50.518;6.732;2023-02-11T05:32:46;20.50;;;17.23;;
74344;SDS011;62776;50.518;6.732;2023-02-11T05:35:34;21.30;;;18.08;;
74344;SDS011;62776;50.518;6.732;2023-02-11T05:38:21;19.17;;;16.77;;
74344;SDS011;62776;50.518;6.732;2023-02-11T05:41:09;19.30;;;17.20;;
74344;SDS011;62776;50.518;6.732;2023-02-11T05:43:56;17.75;;;15.60;;
74344;SDS011;62776;50.518;6.732;2023-02-11T05:46:42;18.63;;;16.20;;
74344;SDS011;62776;50.518;6.732;2023-02-11T05:49:29;19.42;;;15.77;;
74344;SDS011;62776;50.518;6.732;2023-02-11T05:52:15;16.85;;;15.05;;
74344;SDS011;62776;50.518;6.732;2023-02-11T05:55:08;17.10;;;15.02;;
74344;SDS011;62776;50.518;6.732;2023-02-11T05:57:55;17.10;;;15.23;;
74344;SDS011;62776;50.518;6.732;2023-02-11T06:00:44;17.58;;;14.45;;
74344;SDS011;62776;50.518;6.732;2023-02-11T06:03:31;17.00;;;14.13;;
74344;SDS011;62776;50.518;6.732;2023-02-11T06:06:18;14.77;;;13.38;;
74344;SDS011;62776;50.518;6.732;2023-02-11T06:09:06;13.43;;;12.13;;
74344;SDS011;62776;50.518;6.732;2023-02-11T06:11:53;14.95;;;13.27;;
74344;SDS011;62776;50.518;6.732;2023-02-11T06:14:42;15.13;;;13.55;;
74344;SDS011;62776;50.518;6.732;2023-02-11T06:17:35;13.10;;;11.70;;
74344;SDS011;62776;50.518;6.732;2023-02-11T06:20:23;16.80;;;13.52;;
74344;SDS011;62776;50.518;6.732;2023-02-11T06:23:10;14.75;;;13.25;;
74344;SDS011;62776;50.518;6.732;2023-02-11T06:26:00;13.85;;;12.45;;
74344;SDS011;62776;50.518;6.732;2023-02-11T06:29:01;12.80;;;11.60;;
74344;SDS011;62776;50.518;6.732;2023-02-11T06:31:51;13.88;;;12.48;;
74344;SDS011;62776;50.518;6.732;2023-02-11T06:34:48;13.07;;;11.82;;
74344;SDS011;62776;50.518;6.732;2023-02-11T06:37:39;13.10;;;11.82;;
74344;SDS011;62776;50.518;6.732;2023-02-11T06:40:26;13.10;;;10.80;;
74344;SDS011;62776;50.518;6.732;2023-02-11T06:43:12;11.43;;;10.43;;
74344;SDS011;62776;50.518;6.732;2023-02-11T06:46:06;12.50;;;11.20;;
74344;SDS011;62776;50.518;6.732;2023-02-11T06:48:56;12.57;;;11.23;;
74344;SDS011;62776;50.518;6.732;2023-02-11T06:51:44;13.07;;;11.70;;
74344;SDS011;62776;50.518;6.732;2023-02-11T06:54:31;14.05;;;12.55;;
74344;SDS011;62776;50.518;6.732;2023-02-11T06:57:19;13.95;;;12.48;;
74344;SDS011;62776;50.518;6.732;2023-02-11T07:00:06;14.25;;;12.30;;
74344;SDS011;62776;50.518;6.732;2023-02-11T07:02:55;14.98;;;13.38;;
74344;SDS011;62776;50.518;6.732;2023-02-11T07:05:47;15.55;;;13.88;;
74344;SDS011;62776;50.518;6.732;2023-02-11T07:08:37;16.42;;;14.13;;
74344;SDS011;62776;50.518;6.732;2023-02-11T07:11:25;16.65;;;14.02;;
74344;SDS011;62776;50.518;6.732;2023-02-11T07:14:14;14.60;;;12.75;;
74344;SDS011;62776;50.518;6.732;2023-02-11T07:17:00;13.75;;;12.27;;
74344;SDS011;62776;50.518;6.732;2023-02-11T07:19:48;12.68;;;11.15;;
74344;SDS011;62776;50.518;6.732;2023-02-11T07:22:35;13.27;;;11.68;;
74344;SDS011;62776;50.518;6.732;2023-02-11T07:25:22;13.30;;;11.93;;
74344;SDS011;62776;50.518;6.732;2023-02-11T07:28:08;11.73;;;10.52;;
74344;SDS011;62776;50.518;6.732;2023-02-11T07:30:54;12.15;;;10.95;;
74344;SDS011;62776;50.518;6.732;2023-02-11T07:33:42;10.77;;;9.80;;
74344;SDS011;62776;50.518;6.732;2023-02-11T07:36:30;11.50;;;10.30;;
74344;SDS011;62776;50.518;6.732;2023-02-11T07:39:16;9.82;;;8.98;;
74344;SDS011;62776;50.518;6.732;2023-02-11T07:42:05;11.05;;;10.05;;
74344;SDS011;62776;50.518;6.732;2023-02-11T07:44:52;9.80;;;8.82;;
74344;SDS011;62776;50.518;6.732;2023-02-11T07:47:39;9.43;;;8.63;;
74344;SDS011;62776;50.518;6.732;2023-02-11T07:50:37;8.65;;;7.95;;
74344;SDS011;62776;50.518;6.732;2023-02-11T07:53:25;9.52;;;8.73;;
74344;SDS011;62776;50.518;6.732;2023-02-11T07:56:12;8.35;;;7.55;;
74344;SDS011;62776;50.518;6.732;2023-02-11T07:59:02;8.20;;;7.50;;
74344;SDS011;62776;50.518;6.732;2023-02-11T08:01:55;9.10;;;8.30;;
74344;SDS011;62776;50.518;6.732;2023-02-11T08:04:44;9.25;;;8.35;;
74344;SDS011;62776;50.518;6.732;2023-02-11T08:07:32;9.20;;;8.40;;
74344;SDS011;62776;50.518;6.732;2023-02-11T08:10:19;8.38;;;7.68;;
74344;SDS011;62776;50.518;6.732;2023-02-11T08:13:08;7.60;;;6.93;;
74344;SDS011;62776;50.518;6.732;2023-02-11T08:16:00;7.68;;;7.07;;
74344;SDS011;62776;50.518;6.732;2023-02-11T08:18:48;7.32;;;6.82;;
74344;SDS011;62776;50.518;6.732;2023-02-11T08:21:36;7.47;;;6.88;;
74344;SDS011;62776;50.518;6.732;2023-02-11T08:24:30;7.50;;;6.90;;
74344;SDS011;62776;50.518;6.732;2023-02-11T08:27:21;7.80;;;7.10;;
74344;SDS011;62776;50.518;6.732;2023-02-11T08:30:10;6.53;;;6.03;;
74344;SDS011;62776;50.518;6.732;2023-02-11T08:33:03;7.65;;;6.88;;
74344;SDS011;62776;50.518;6.732;2023-02-11T08:35:51;6.07;;;5.57;;
74344;SDS011;62776;50.518;6.732;2023-02-11T08:38:37;6.63;;;6.13;;
74344;SDS011;62776;50.518;6.732;2023-02-11T08:41:25;6.93;;;6.32;;
74344;SDS011;62776;50.518;6.732;2023-02-11T08:44:11;6.75;;;6.15;;
74344;SDS011;62776;50.518;6.732;2023-02-11T08:46:59;5.32;;;4.93;;
74344;SDS011;62776;50.518;6.732;2023-02-11T08:49:45;6.28;;;5.78;;
74344;SDS011;62776;50.518;6.732;2023-02-11T08:52:36;6.47;;;5.88;;
74344;SDS011;62776;50.518;6.732;2023-02-11T08:55:31;6.55;;;6.05;;
74344;SDS011;62776;50.518;6.732;2023-02-11T08:58:23;5.80;;;5.32;;
74344;SDS011;62776;50.518;6.732;2023-02-11T09:01:12;5.82;;;5.38;;
74344;SDS011;62776;50.518;6.732;2023-02-11T09:04:04;5.60;;;5.20;;
74344;SDS011;62776;50.518;6.732;2023-02-11T09:06:50;5.90;;;5.50;;
74344;SDS011;62776;50.518;6.732;2023-02-11T09:09:37;5.80;;;5.40;;
74344;SDS011;62776;50.518;6.732;2023-02-11T09:12:23;5.35;;;4.95;;
74344;SDS011;62776;50.518;6.732;2023-02-11T09:15:09;5.43;;;5.03;;
74344;SDS011;62776;50.518;6.732;2023-02-11T09:17:58;4.85;;;4.55;;
74344;SDS011;62776;50.518;6.732;2023-02-11T09:20:49;5.63;;;5.22;;
74344;SDS011;62776;50.518;6.732;2023-02-11T09:23:36;5.88;;;5.38;;
74344;SDS011;62776;50.518;6.732;2023-02-11T09:26:27;6.70;;;6.15;;
74344;SDS011;62776;50.518;6.732;2023-02-11T09:29:15;7.25;;;6.68;;
74344;SDS011;62776;50.518;6.732;2023-02-11T09:32:02;6.65;;;6.05;;
74344;SDS011;62776;50.518;6.732;2023-02-11T09:34:49;6.50;;;6.00;;
74344;SDS011;62776;50.518;6.732;2023-02-11T09:37:37;6.55;;;5.68;;
74344;SDS011;62776;50.518;6.732;2023-02-11T09:40:23;6.13;;;5.63;;
74344;SDS011;62776;50.518;6.732;2023-02-11T09:43:19;6.15;;;5.65;;
74344;SDS011;62776;50.518;6.732;2023-02-11T09:46:12;6.38;;;5.78;;
74344;SDS011;62776;50.518;6.732;2023-02-11T09:49:01;6.72;;;6.13;;
74344;SDS011;62776;50.518;6.732;2023-02-11T09:51:51;7.82;;;7.22;;
74344;SDS011;62776;50.518;6.732;2023-02-11T09:54:56;7.18;;;6.57;;
74344;SDS011;62776;50.518;6.732;2023-02-11T09:57:56;8.73;;;7.90;;
74344;SDS011;62776;50.518;6.732;2023-02-11T10:00:52;7.57;;;6.88;;
74344;SDS011;62776;50.518;6.732;2023-02-11T10:07:36;8.00;;;7.20;;
74344;SDS011;62776;50.518;6.732;2023-02-11T10:10:49;8.55;;;7.75;;
74344;SDS011;62776;50.518;6.732;2023-02-11T10:13:49;7.45;;;6.85;;
74344;SDS011;62776;50.518;6.732;2023-02-11T10:17:07;6.65;;;6.05;;
74344;SDS011;62776;50.518;6.732;2023-02-11T10:20:54;6.88;;;6.05;;
74344;SDS011;62776;50.518;6.732;2023-02-11T10:23:30;6.22;;;5.72;;
74344;SDS011;62776;50.518;6.732;2023-02-11T10:26:20;6.88;;;6.28;;
74344;SDS011;62776;50.518;6.732;2023-02-11T10:29:21;5.70;;;5.20;;
74344;SDS011;62776;50.518;6.732;2023-02-11T10:32:25;5.80;;;5.30;;
74344;SDS011;62776;50.518;6.732;2023-02-11T10:35:26;6.40;;;5.88;;
74344;SDS011;62776;50.518;6.732;2023-02-11T10:38:15;6.72;;;6.13;;
74344;SDS011;62776;50.518;6.732;2023-02-11T10:41:01;6.18;;;5.68;;
74344;SDS011;62776;50.518;6.732;2023-02-11T10:43:49;7.10;;;6.50;;
74344;SDS011;62776;50.518;6.732;2023-02-11T10:46:38;6.20;;;5.60;;
74344;SDS011;62776;50.518;6.732;2023-02-11T10:52:37;5.50;;;5.05;;
74344;SDS011;62776;50.518;6.732;2023-02-11T10:55:23;6.72;;;6.03;;
74344;SDS011;62776;50.518;6.732;2023-02-11T10:58:17;6.38;;;5.82;;
74344;SDS011;62776;50.518;6.732;2023-02-11T11:01:15;6.82;;;5.53;;
74344;SDS011;62776;50.518;6.732;2023-02-11T11:04:21;6.60;;;6.00;;
74344;SDS011;62776;50.518;6.732;2023-02-11T11:07:14;6.60;;;6.00;;
74344;SDS011;62776;50.518;6.732;2023-02-11T11:19:14;5.43;;;5.03;;
74344;SDS011;62776;50.518;6.732;2023-02-11T11:22:11;5.03;;;4.63;;
74344;SDS011;62776;50.518;6.732;2023-02-11T11:25:23;5.72;;;4.93;;
74344;SDS011;62776;50.518;6.732;2023-02-11T11:28:18;5.95;;;5.45;;
74344;SDS011;62776;50.518;6.732;2023-02-11T11:31:12;5.35;;;4.95;;
74344;SDS011;62776;50.518;6.732;2023-02-11T11:34:17;4.68;;;4.28;;
74344;SDS011;62776;50.518;6.732;2023-02-11T11:37:19;5.35;;;4.90;;
74344;SDS011;62776;50.518;6.732;2023-02-11T11:40:23;4.50;;;4.10;;
74344;SDS011;62776;50.518;6.732;2023-02-11T11:43:17;4.38;;;4.07;;
74344;SDS011;62776;50.518;6.732;2023-02-11T11:46:04;5.03;;;4.63;;
74344;SDS011;62776;50.518;6.732;2023-02-11T11:48:55;5.68;;;5.18;;
74344;SDS011;62776;50.518;6.732;2023-02-11T11:52:23;5.35;;;4.88;;
74344;SDS011;62776;50.518;6.732;2023-02-11T11:55:17;5.85;;;5.35;;
74344;SDS011;62776;50.518;6.732;2023-02-11T11:58:18;5.80;;;5.30;;
74344;SDS011;62776;50.518;6.732;2023-02-11T12:10:28;5.68;;;5.18;;
74344;SDS011;62776;50.518;6.732;2023-02-11T12:23:08;5.20;;;4.80;;
74344;SDS011;62776;50.518;6.732;2023-02-11T12:29:24;6.03;;;5.47;;
74344;SDS011;62776;50.518;6.732;2023-02-11T12:41:51;6.55;;;5.95;;
74344;SDS011;62776;50.518;6.732;2023-02-11T12:45:28;7.18;;;6.57;;
74344;SDS011;62776;50.518;6.732;2023-02-11T12:55:00;6.10;;;5.60;;
74344;SDS011;62776;50.518;6.732;2023-02-11T12:58:02;7.45;;;6.85;;
74344;SDS011;62776;50.518;6.732;2023-02-11T13:00:52;6.75;;;6.15;;
74344;SDS011;62776;50.518;6.732;2023-02-11T13:03:56;7.28;;;6.68;;
74344;SDS011;62776;50.518;6.732;2023-02-11T13:07:10;7.72;;;7.03;;
74344;SDS011;62776;50.518;6.732;2023-02-11T13:12:53;7.43;;;6.82;;
74344;SDS011;62776;50.518;6.732;2023-02-11T13:16:00;8.20;;;7.50;;
74344;SDS011;62776;50.518;6.732;2023-02-11T13:22:23;7.85;;;7.15;;
74344;SDS011;62776;50.518;6.732;2023-02-11T13:25:35;7.47;;;6.80;;
74344;SDS011;62776;50.518;6.732;2023-02-11T13:28:35;6.95;;;6.35;;
74344;SDS011;62776;50.518;6.732;2023-02-11T13:31:33;7.90;;;7.25;;
74344;SDS011;62776;50.518;6.732;2023-02-11T13:34:22;7.18;;;6.47;;
74344;SDS011;62776;50.518;6.732;2023-02-11T13:37:37;7.55;;;6.85;;
74344;SDS011;62776;50.518;6.732;2023-02-11T13:40:34;6.93;;;6.28;;
74344;SDS011;62776;50.518;6.732;2023-02-11T13:43:33;6.50;;;5.97;;
74344;SDS011;62776;50.518;6.732;2023-02-11T13:46:20;9.38;;;7.60;;
74344;SDS011;62776;50.518;6.732;2023-02-11T13:49:14;7.53;;;6.80;;
74344;SDS011;62776;50.518;6.732;2023-02-11T13:55:21;8.68;;;7.90;;
74344;SDS011;62776;50.518;6.732;2023-02-11T14:01:02;8.52;;;7.72;;
74344;SDS011;62776;50.518;6.732;2023-02-11T14:04:12;9.38;;;7.20;;
74344;SDS011;62776;50.518;6.732;2023-02-11T14:07:32;8.25;;;7.45;;
74344;SDS011;62776;50.518;6.732;2023-02-11T14:13:31;6.03;;;5.53;;
74344;SDS011;62776;50.518;6.732;2023-02-11T14:20:30;8.35;;;7.55;;
74344;SDS011;62776;50.518;6.732;2023-02-11T14:23:28;8.35;;;7.53;;
74344;SDS011;62776;50.518;6.732;2023-02-11T14:29:30;8.50;;;7.70;;
74344;SDS011;62776;50.518;6.732;2023-02-11T14:35:35;8.50;;;7.55;;
74344;SDS011;62776;50.518;6.732;2023-02-11T14:41:43;10.40;;;8.48;;
74344;SDS011;62776;50.518;6.732;2023-02-11T14:44:33;9.20;;;7.82;;
74344;SDS011;62776;50.518;6.732;2023-02-11T14:47:47;9.48;;;8.63;;
74344;SDS011;62776;50.518;6.732;2023-02-11T14:50:40;8.88;;;8.05;;
74344;SDS011;62776;50.518;6.732;2023-02-11T14:53:33;9.27;;;8.38;;
74344;SDS011;62776;50.518;6.732;2023-02-11T14:56:23;9.57;;;8.57;;
74344;SDS011;62776;50.518;6.732;2023-02-11T14:59:18;9.80;;;8.82;;
74344;SDS011;62776;50.518;6.732;2023-02-11T15:02:18;9.20;;;8.30;;
74344;SDS011;62776;50.518;6.732;2023-02-11T15:05:15;9.70;;;8.70;;
74344;SDS011;62776;50.518;6.732;2023-02-11T15:10:50;10.65;;;9.57;;
74344;SDS011;62776;50.518;6.732;2023-02-11T15:13:40;12.80;;;11.65;;
74344;SDS011;62776;50.518;6.732;2023-02-11T15:16:33;15.52;;;13.93;;
74344;SDS011;62776;50.518;6.732;2023-02-11T15:22:29;14.82;;;13.35;;
74344;SDS011;62776;50.518;6.732;2023-02-11T15:25:21;11.15;;;10.15;;
74344;SDS011;62776;50.518;6.732;2023-02-11T15:28:18;11.32;;;10.23;;
74344;SDS011;62776;50.518;6.732;2023-02-11T15:31:20;10.45;;;9.45;;
74344;SDS011;62776;50.518;6.732;2023-02-11T15:34:10;10.50;;;9.57;;
74344;SDS011;62776;50.518;6.732;2023-02-11T15:37:03;9.23;;;8.23;;
74344;SDS011;62776;50.518;6.732;2023-02-11T15:39:51;9.50;;;8.60;;
74344;SDS011;62776;50.518;6.732;2023-02-11T15:42:39;8.40;;;7.63;;
74344;SDS011;62776;50.518;6.732;2023-02-11T15:45:39;8.57;;;7.78;;
74344;SDS011;62776;50.518;6.732;2023-02-11T15:48:53;8.02;;;7.22;;
74344;SDS011;62776;50.518;6.732;2023-02-11T15:51:41;8.27;;;7.57;;
74344;SDS011;62776;50.518;6.732;2023-02-11T15:54:30;7.38;;;6.78;;
74344;SDS011;62776;50.518;6.732;2023-02-11T15:57:18;7.88;;;7.18;;
74344;SDS011;62776;50.518;6.732;2023-02-11T16:00:13;8.50;;;7.70;;
74344;SDS011;62776;50.518;6.732;2023-02-11T16:03:03;8.07;;;7.38;;
74344;SDS011;62776;50.518;6.732;2023-02-11T16:05:50;8.68;;;7.93;;
74344;SDS011;62776;50.518;6.732;2023-02-11T16:08:37;7.90;;;7.30;;
74344;SDS011;62776;50.518;6.732;2023-02-11T16:11:28;7.47;;;6.78;;
74344;SDS011;62776;50.518;6.732;2023-02-11T16:17:11;7.20;;;6.60;;
74344;SDS011;62776;50.518;6.732;2023-02-11T16:20:18;8.40;;;7.65;;
74344;SDS011;62776;50.518;6.732;2023-02-11T16:23:05;9.68;;;7.28;;
74344;SDS011;62776;50.518;6.732;2023-02-11T16:25:56;8.88;;;8.07;;
74344;SDS011;62776;50.518;6.732;2023-02-11T16:28:47;7.88;;;7.18;;
74344;SDS011;62776;50.518;6.732;2023-02-11T16:31:38;6.70;;;6.13;;
74344;SDS011;62776;50.518;6.732;2023-02-11T16:34:35;7.03;;;6.43;;
74344;SDS011;62776;50.518;6.732;2023-02-11T16:37:22;6.57;;;6.00;;
74344;SDS011;62776;50.518;6.732;2023-02-11T16:40:10;7.88;;;7.07;;
74344;SDS011;62776;50.518;6.732;2023-02-11T16:42:58;7.82;;;7.22;;
74344;SDS011;62776;50.518;6.732;2023-02-11T16:45:50;7.63;;;6.93;;
74344;SDS011;62776;50.518;6.732;2023-02-11T16:48:37;9.07;;;8.35;;
74344;SDS011;62776;50.518;6.732;2023-02-11T16:51:24;8.13;;;7.43;;
74344;SDS011;62776;50.518;6.732;2023-02-11T16:54:14;9.55;;;8.65;;
74344;SDS011;62776;50.518;6.732;2023-02-11T16:57:04;8.65;;;7.95;;
74344;SDS011;62776;50.518;6.732;2023-02-11T17:00:07;8.20;;;7.50;;
74344;SDS011;62776;50.518;6.732;2023-02-11T17:03:00;8.70;;;7.90;;
74344;SDS011;62776;50.518;6.732;2023-02-11T17:05:54;8.35;;;7.65;;
74344;SDS011;62776;50.518;6.732;2023-02-11T17:08:43;9.52;;;7.70;;
74344;SDS011;62776;50.518;6.732;2023-02-11T17:11:33;8.02;;;7.30;;
74344;SDS011;62776;50.518;6.732;2023-02-11T17:14:19;8.07;;;7.38;;
74344;SDS011;62776;50.518;6.732;2023-02-11T17:17:06;7.45;;;6.85;;
74344;SDS011;62776;50.518;6.732;2023-02-11T17:19:53;8.27;;;7.45;;
74344;SDS011;62776;50.518;6.732;2023-02-11T17:22:39;7.47;;;6.88;;
74344;SDS011;62776;50.518;6.732;2023-02-11T17:25:27;8.00;;;7.20;;
74344;SDS011;62776;50.518;6.732;2023-02-11T17:28:15;7.68;;;6.97;;
74344;SDS011;62776;50.518;6.732;2023-02-11T17:31:07;7.63;;;6.93;;
74344;SDS011;62776;50.518;6.732;2023-02-11T17:33:53;7.63;;;6.93;;
74344;SDS011;62776;50.518;6.732;2023-02-11T17:36:40;7.55;;;6.95;;
74344;SDS011;62776;50.518;6.732;2023-02-11T17:39:27;7.93;;;7.32;;
74344;SDS011;62776;50.518;6.732;2023-02-11T17:42:13;7.10;;;6.50;;
74344;SDS011;62776;50.518;6.732;2023-02-11T17:45:00;7.55;;;6.95;;
74344;SDS011;62776;50.518;6.732;2023-02-11T17:47:48;9.35;;;8.35;;
74344;SDS011;62776;50.518;6.732;2023-02-11T17:50:35;7.78;;;7.07;;
74344;SDS011;62776;50.518;6.732;2023-02-11T17:53:21;8.35;;;7.60;;
74344;SDS011;62776;50.518;6.732;2023-02-11T17:56:08;10.05;;;9.25;;
74344;SDS011;62776;50.518;6.732;2023-02-11T17:58:55;9.52;;;8.63;;
74344;SDS011;62776;50.518;6.732;2023-02-11T18:01:48;10.00;;;9.10;;
74344;SDS011;62776;50.518;6.732;2023-02-11T18:04:35;12.68;;;11.55;;
74344;SDS011;62776;50.518;6.732;2023-02-11T18:07:24;12.80;;;11.55;;
74344;SDS011;62776;50.518;6.732;2023-02-11T18:10:13;10.93;;;9.90;;
74344;SDS011;62776;50.518;6.732;2023-02-11T18:12:59;10.68;;;9.68;;
74344;SDS011;62776;50.518;6.732;2023-02-11T18:15:48;10.77;;;9.88;;
74344;SDS011;62776;50.518;6.732;2023-02-11T18:18:34;9.95;;;9.15;;
74344;SDS011;62776;50.518;6.732;2023-02-11T18:21:20;10.75;;;9.80;;
74344;SDS011;62776;50.518;6.732;2023-02-11T18:24:08;10.20;;;9.40;;
74344;SDS011;62776;50.518;6.732;2023-02-11T18:26:55;11.02;;;10.02;;
74344;SDS011;62776;50.518;6.732;2023-02-11T18:29:50;9.13;;;8.38;;
74344;SDS011;62776;50.518;6.732;2023-02-11T18:32:38;10.57;;;9.57;;
74344;SDS011;62776;50.518;6.732;2023-02-11T18:35:30;11.20;;;10.05;;
74344;SDS011;62776;50.518;6.732;2023-02-11T18:38:17;12.05;;;11.05;;
74344;SDS011;62776;50.518;6.732;2023-02-11T18:41:03;10.50;;;9.60;;
74344;SDS011;62776;50.518;6.732;2023-02-11T18:43:51;9.52;;;8.80;;
74344;SDS011;62776;50.518;6.732;2023-02-11T18:46:37;10.13;;;9.32;;
74344;SDS011;62776;50.518;6.732;2023-02-11T18:49:26;9.63;;;8.82;;
74344;SDS011;62776;50.518;6.732;2023-02-11T18:52:14;8.85;;;8.15;;
74344;SDS011;62776;50.518;6.732;2023-02-11T18:55:03;9.52;;;8.73;;
74344;SDS011;62776;50.518;6.732;2023-02-11T18:57:53;8.77;;;8.05;;
74344;SDS011;62776;50.518;6.732;2023-02-11T19:00:41;8.93;;;8.20;;
74344;SDS011;62776;50.518;6.732;2023-02-11T19:03:31;8.32;;;7.53;;
74344;SDS011;62776;50.518;6.732;2023-02-11T19:06:20;9.75;;;8.95;;
74344;SDS011;62776;50.518;6.732;2023-02-11T19:09:11;9.40;;;8.60;;